createdAt,value
2022-08-31T00:00:09.110Z,5.15
2022-08-31T00:02:55.717Z,8.23
2022-08-31T00:05:23.863Z,7.45
2022-08-31T00:07:51.705Z,5.93
2022-08-31T00:10:22.279Z,5.00
2022-08-31T00:13:02.912Z,10.07
2022-08-31T00:15:31.210Z,5.97
2022-08-31T00:18:00.224Z,5.82
2022-08-31T00:20:34.305Z,8.32
2022-08-31T00:23:02.825Z,7.07
2022-08-31T00:25:31.020Z,6.78
2022-08-31T00:27:58.849Z,5.85
2022-08-31T00:30:26.760Z,9.90
2022-08-31T00:32:54.404Z,8.95
2022-08-31T00:35:28.744Z,6.03
2022-08-31T00:37:56.785Z,4.70
2022-08-31T00:40:25.154Z,6.35
2022-08-31T00:42:53.108Z,5.88
2022-08-31T00:45:22.459Z,8.43
2022-08-31T00:47:52.598Z,4.80
2022-08-31T00:50:22.086Z,7.90
2022-08-31T00:52:54.377Z,6.10
2022-08-31T00:55:25.611Z,4.78
2022-08-31T00:57:56.764Z,4.68
2022-08-31T01:00:27.031Z,7.95
2022-08-31T01:02:57.172Z,8.70
2022-08-31T01:05:24.932Z,8.07
2022-08-31T01:07:54.393Z,6.32
2022-08-31T01:10:25.622Z,6.82
2022-08-31T01:12:56.473Z,6.15
2022-08-31T01:15:26.039Z,4.90
2022-08-31T01:17:56.000Z,5.32
2022-08-31T01:20:29.977Z,6.18
2022-08-31T01:23:10.947Z,4.07
2022-08-31T01:25:40.367Z,4.22
2022-08-31T01:28:10.235Z,5.38
2022-08-31T01:30:39.895Z,6.45
2022-08-31T01:33:11.253Z,5.80
2022-08-31T01:35:41.220Z,4.22
2022-08-31T01:38:10.885Z,4.70
2022-08-31T01:40:45.703Z,4.55
2022-08-31T01:43:13.507Z,6.22
2022-08-31T01:45:42.573Z,4.22
2022-08-31T01:48:10.336Z,6.05
2022-08-31T01:50:37.971Z,5.57
2022-08-31T01:53:05.838Z,4.72
2022-08-31T01:55:34.942Z,3.83
2022-08-31T01:58:03.517Z,3.92
2022-08-31T02:00:54.228Z,4.63
2022-08-31T02:03:21.885Z,4.43
2022-08-31T02:05:49.600Z,4.35
2022-08-31T02:08:17.457Z,5.10
2022-08-31T02:10:47.510Z,3.95
2022-08-31T02:13:15.341Z,5.22
2022-08-31T02:15:43.345Z,4.07
2022-08-31T02:18:12.167Z,6.00
2022-08-31T02:20:40.184Z,3.70
2022-08-31T02:23:10.921Z,4.03
2022-08-31T02:25:38.654Z,3.88
2022-08-31T02:28:07.764Z,5.28
2022-08-31T02:30:35.525Z,4.45
2022-08-31T02:33:03.284Z,4.13
2022-08-31T02:35:31.562Z,5.65
2022-08-31T02:38:00.702Z,3.85
2022-08-31T02:40:28.655Z,4.50
2022-08-31T02:42:57.267Z,3.97
2022-08-31T02:45:28.661Z,5.15
2022-08-31T02:48:03.476Z,6.40
2022-08-31T02:50:41.445Z,6.38
2022-08-31T02:53:09.757Z,4.25
2022-08-31T02:55:38.060Z,5.45
2022-08-31T02:58:06.687Z,7.60
2022-08-31T03:00:35.912Z,4.00
2022-08-31T03:03:04.233Z,4.28
2022-08-31T03:05:32.331Z,5.45
2022-08-31T03:07:59.979Z,4.20
2022-08-31T03:10:27.911Z,4.28
2022-08-31T03:12:56.115Z,4.63
2022-08-31T03:15:26.477Z,5.72
2022-08-31T03:17:55.826Z,3.38
2022-08-31T03:20:27.630Z,3.67
2022-08-31T03:22:55.943Z,5.35
2022-08-31T03:25:27.353Z,4.63
2022-08-31T03:27:55.027Z,3.97
2022-08-31T03:30:24.222Z,6.13
2022-08-31T03:33:04.736Z,4.65
2022-08-31T03:35:34.152Z,5.13
2022-08-31T03:38:03.288Z,4.20
2022-08-31T03:40:31.527Z,4.80
2022-08-31T03:42:59.479Z,4.28
2022-08-31T03:45:28.806Z,4.72
2022-08-31T03:47:57.149Z,4.07
2022-08-31T03:50:27.944Z,4.88
2022-08-31T03:53:04.113Z,4.40
2022-08-31T03:55:33.498Z,5.40
2022-08-31T03:58:01.824Z,4.10
2022-08-31T04:00:31.180Z,5.60
2022-08-31T04:03:04.397Z,4.65
2022-08-31T04:05:35.792Z,4.20
2022-08-31T04:08:22.927Z,5.43
2022-08-31T04:11:11.712Z,4.82
2022-08-31T04:13:59.375Z,6.60
2022-08-31T04:16:37.055Z,5.15
2022-08-31T04:19:36.815Z,4.40
2022-08-31T04:22:26.097Z,4.95
2022-08-31T04:25:13.721Z,3.95
2022-08-31T04:27:47.847Z,4.50
2022-08-31T04:30:16.318Z,7.28
2022-08-31T04:32:44.168Z,4.53
2022-08-31T04:35:11.805Z,5.90
2022-08-31T04:37:46.675Z,5.25
2022-08-31T04:40:19.556Z,6.80
2022-08-31T04:42:48.301Z,5.70
2022-08-31T04:45:18.064Z,5.57
2022-08-31T04:47:45.761Z,8.77
2022-08-31T04:50:16.431Z,6.82
2022-08-31T04:53:09.094Z,8.73
2022-08-31T04:55:40.821Z,7.35
2022-08-31T04:58:09.592Z,8.23
2022-08-31T05:00:38.205Z,9.52
2022-08-31T05:03:32.330Z,8.40
2022-08-31T05:06:00.116Z,7.47
2022-08-31T05:08:29.146Z,7.25
2022-08-31T05:10:56.890Z,7.15
2022-08-31T05:13:24.663Z,7.60
2022-08-31T05:15:54.883Z,7.95
2022-08-31T05:18:22.903Z,13.07
2022-08-31T05:20:57.103Z,9.07
2022-08-31T05:23:24.811Z,7.72
2022-08-31T05:25:53.835Z,7.35
2022-08-31T05:28:23.449Z,8.18
2022-08-31T05:30:51.182Z,7.97
2022-08-31T05:33:35.778Z,8.75
2022-08-31T05:36:04.305Z,10.05
2022-08-31T05:38:32.599Z,10.00
2022-08-31T05:41:06.446Z,7.75
2022-08-31T05:43:35.218Z,8.23
2022-08-31T05:46:10.084Z,8.40
2022-08-31T05:48:39.027Z,12.43
2022-08-31T05:51:13.838Z,10.13
2022-08-31T05:53:43.526Z,8.80
2022-08-31T05:56:16.601Z,11.98
2022-08-31T05:58:49.239Z,12.15
2022-08-31T06:01:18.848Z,9.95
2022-08-31T06:04:02.085Z,9.57
2022-08-31T06:06:30.668Z,7.60
2022-08-31T06:08:59.355Z,9.50
2022-08-31T06:11:31.841Z,10.43
2022-08-31T06:14:02.088Z,7.30
2022-08-31T06:16:32.205Z,8.75
2022-08-31T06:19:03.339Z,8.65
2022-08-31T06:21:33.404Z,8.38
2022-08-31T06:24:03.186Z,8.57
2022-08-31T06:26:35.680Z,9.27
2022-08-31T06:29:09.092Z,8.82
2022-08-31T06:31:42.572Z,7.47
2022-08-31T06:34:10.237Z,9.23
2022-08-31T06:37:04.810Z,10.95
2022-08-31T06:39:38.745Z,10.35
2022-08-31T06:42:17.775Z,8.20
2022-08-31T06:45:00.011Z,9.75
2022-08-31T06:47:43.165Z,10.38
2022-08-31T06:50:13.496Z,9.82
2022-08-31T06:52:41.237Z,9.60
2022-08-31T06:55:31.890Z,11.93
2022-08-31T06:58:19.727Z,9.45
2022-08-31T07:01:08.085Z,9.35
2022-08-31T07:04:01.049Z,8.73
2022-08-31T07:06:30.649Z,10.00
2022-08-31T07:09:00.633Z,9.65
2022-08-31T07:11:31.720Z,10.80
2022-08-31T07:14:01.949Z,12.13
2022-08-31T07:16:31.586Z,10.60
2022-08-31T07:19:04.332Z,11.77
2022-08-31T07:21:33.554Z,11.20
2022-08-31T07:24:03.576Z,11.85
2022-08-31T07:26:36.585Z,9.52
2022-08-31T07:29:08.029Z,10.75
2022-08-31T07:31:40.216Z,11.85
2022-08-31T07:34:08.834Z,11.38
2022-08-31T07:37:03.241Z,10.48
2022-08-31T07:39:52.035Z,10.35
2022-08-31T07:42:25.027Z,10.73
2022-08-31T07:44:57.166Z,11.00
2022-08-31T07:47:28.984Z,10.07
2022-08-31T07:50:01.072Z,12.45
2022-08-31T07:52:47.693Z,9.30
2022-08-31T07:55:55.526Z,9.60
2022-08-31T07:58:34.921Z,8.25
2022-08-31T08:01:04.124Z,9.02
2022-08-31T08:03:31.840Z,9.48
2022-08-31T08:06:37.562Z,10.15
2022-08-31T08:09:43.161Z,12.98
2022-08-31T08:12:30.711Z,11.77
2022-08-31T08:15:10.379Z,9.18
2022-08-31T08:17:49.509Z,8.77
2022-08-31T08:20:34.222Z,8.38
2022-08-31T08:23:11.372Z,9.65
2022-08-31T08:26:09.544Z,9.73
2022-08-31T08:29:06.073Z,9.75
2022-08-31T08:31:36.355Z,9.90
2022-08-31T08:34:05.808Z,10.55
2022-08-31T08:36:36.724Z,7.80
2022-08-31T08:39:07.908Z,9.85
2022-08-31T08:41:39.847Z,9.57
2022-08-31T08:44:16.783Z,10.65
2022-08-31T08:46:50.065Z,7.85
2022-08-31T08:49:25.142Z,10.50
2022-08-31T08:51:57.189Z,12.32
2022-08-31T08:54:32.592Z,10.48
2022-08-31T08:57:04.397Z,8.20
2022-08-31T08:59:32.042Z,10.38
2022-08-31T09:02:06.920Z,8.48
2022-08-31T09:05:15.814Z,8.80
2022-08-31T09:08:10.142Z,8.27
2022-08-31T09:10:42.916Z,9.98
2022-08-31T09:13:25.625Z,10.52
2022-08-31T09:16:04.546Z,9.77
2022-08-31T09:18:45.675Z,6.85
2022-08-31T09:21:22.002Z,6.75
2022-08-31T09:24:02.240Z,6.55
2022-08-31T09:26:51.770Z,7.35
2022-08-31T09:29:34.088Z,6.13
2022-08-31T09:32:06.344Z,9.27
2022-08-31T09:34:37.345Z,6.43
2022-08-31T09:37:16.335Z,6.15
2022-08-31T09:39:48.473Z,6.63
2022-08-31T09:42:28.987Z,7.50
2022-08-31T09:44:58.981Z,7.20
2022-08-31T09:47:55.916Z,7.35
2022-08-31T09:50:32.555Z,6.10
2022-08-31T09:53:35.207Z,6.82
2022-08-31T09:56:19.786Z,5.72
2022-08-31T09:58:50.727Z,6.78
2022-08-31T10:01:23.049Z,8.18
2022-08-31T10:03:51.329Z,6.13
2022-08-31T10:06:46.694Z,6.07
2022-08-31T10:09:28.495Z,6.13
2022-08-31T10:12:00.463Z,6.40
2022-08-31T10:14:36.060Z,7.43
2022-08-31T10:17:11.285Z,7.53
2022-08-31T10:19:52.939Z,8.00
2022-08-31T10:22:28.202Z,7.35
2022-08-31T10:25:07.003Z,5.22
2022-08-31T10:27:43.335Z,7.38
2022-08-31T10:30:21.170Z,6.25
2022-08-31T10:32:56.363Z,6.90
2022-08-31T10:35:42.465Z,9.18
2022-08-31T10:38:21.232Z,8.25
2022-08-31T10:40:52.786Z,8.05
2022-08-31T10:43:23.870Z,8.10
2022-08-31T10:45:54.151Z,7.38
2022-08-31T10:48:24.730Z,7.43
2022-08-31T10:51:06.522Z,6.53
2022-08-31T10:53:45.865Z,8.88
2022-08-31T10:56:20.441Z,7.60
2022-08-31T10:59:04.514Z,8.35
2022-08-31T11:01:39.882Z,6.90
2022-08-31T11:04:36.784Z,8.45
2022-08-31T11:07:14.271Z,5.68
2022-08-31T11:09:54.874Z,10.57
2022-08-31T11:12:28.025Z,5.75
2022-08-31T11:15:25.500Z,6.28
2022-08-31T11:18:16.591Z,6.20
2022-08-31T11:21:02.516Z,5.38
2022-08-31T11:23:45.431Z,6.45
2022-08-31T11:26:39.070Z,5.00
2022-08-31T11:29:15.349Z,6.00
2022-08-31T11:31:44.713Z,6.68
2022-08-31T11:34:17.240Z,5.95
2022-08-31T11:36:50.912Z,4.90
2022-08-31T11:39:40.298Z,7.07
2022-08-31T11:42:14.131Z,6.00
2022-08-31T11:44:59.793Z,8.95
2022-08-31T11:47:42.088Z,6.13
2022-08-31T11:50:54.212Z,7.03
2022-08-31T11:53:29.076Z,6.28
2022-08-31T11:56:05.033Z,6.15
2022-08-31T11:58:35.889Z,6.65
2022-08-31T12:01:09.398Z,6.85
2022-08-31T12:03:50.704Z,7.25
2022-08-31T12:07:07.457Z,6.43
2022-08-31T12:09:59.084Z,8.15
2022-08-31T12:12:38.381Z,6.28
2022-08-31T12:15:17.419Z,8.45
2022-08-31T12:17:57.695Z,9.40
2022-08-31T12:21:01.006Z,10.15
2022-08-31T12:23:37.622Z,8.10
2022-08-31T12:26:33.478Z,7.57
2022-08-31T12:29:20.642Z,6.35
2022-08-31T12:32:10.876Z,7.40
2022-08-31T12:34:41.923Z,8.80
2022-08-31T12:37:36.035Z,6.78
2022-08-31T12:40:16.845Z,7.25
2022-08-31T12:42:55.000Z,8.15
2022-08-31T12:45:38.652Z,7.45
2022-08-31T12:50:44.818Z,7.60
2022-08-31T12:53:35.750Z,9.45
2022-08-31T12:56:11.286Z,5.88
2022-08-31T12:58:57.562Z,6.75
2022-08-31T13:01:27.546Z,6.85
2022-08-31T13:03:59.036Z,7.75
2022-08-31T13:06:29.654Z,6.75
2022-08-31T13:09:00.640Z,6.30
2022-08-31T13:11:35.450Z,46.35
2022-08-31T13:14:18.089Z,124.78
2022-08-31T13:16:48.433Z,80.63
2022-08-31T13:19:22.727Z,39.03
2022-08-31T13:21:52.341Z,40.65
2022-08-31T13:24:26.770Z,27.45
2022-08-31T13:27:09.190Z,8.90
2022-08-31T13:29:44.066Z,8.65
2022-08-31T13:32:13.473Z,6.80
2022-08-31T13:34:42.752Z,17.75
2022-08-31T13:37:18.194Z,16.40
2022-08-31T13:39:47.980Z,15.77
2022-08-31T13:42:29.886Z,11.00
2022-08-31T13:45:01.534Z,13.88
2022-08-31T13:47:31.978Z,10.95
2022-08-31T13:50:13.556Z,8.98
2022-08-31T13:53:09.604Z,6.45
2022-08-31T13:55:41.934Z,8.90
2022-08-31T13:58:26.706Z,6.47
2022-08-31T14:00:58.081Z,9.02
2022-08-31T14:03:41.955Z,6.53
2022-08-31T14:06:27.141Z,6.53
2022-08-31T14:09:00.176Z,5.93
2022-08-31T14:11:29.186Z,5.88
2022-08-31T14:14:05.972Z,5.90
2022-08-31T14:16:36.424Z,4.80
2022-08-31T14:19:04.766Z,5.38
2022-08-31T14:21:35.086Z,5.00
2022-08-31T14:24:03.444Z,8.35
2022-08-31T14:26:34.580Z,5.20
2022-08-31T14:29:10.047Z,4.95
2022-08-31T14:31:42.828Z,6.95
2022-08-31T14:34:30.064Z,5.75
2022-08-31T14:37:02.270Z,4.95
2022-08-31T14:39:33.047Z,4.33
2022-08-31T14:42:06.029Z,5.25
2022-08-31T14:44:37.679Z,4.13
2022-08-31T14:47:05.987Z,5.13
2022-08-31T14:49:36.377Z,4.07
2022-08-31T14:52:06.709Z,6.65
2022-08-31T14:54:36.985Z,4.82
2022-08-31T14:57:11.457Z,4.90
2022-08-31T14:59:42.938Z,4.60
2022-08-31T15:02:13.117Z,5.45
2022-08-31T15:04:45.680Z,5.97
2022-08-31T15:07:14.787Z,6.18
2022-08-31T15:09:43.219Z,4.22
2022-08-31T15:12:15.123Z,7.25
2022-08-31T15:14:44.712Z,6.32
2022-08-31T15:17:18.794Z,5.85
2022-08-31T15:19:50.131Z,3.53
2022-08-31T15:22:18.141Z,8.20
2022-08-31T15:24:46.412Z,6.47
2022-08-31T15:27:17.129Z,4.90
2022-08-31T15:29:47.559Z,4.75
2022-08-31T15:32:16.599Z,4.90
2022-08-31T15:34:56.151Z,5.82
2022-08-31T15:37:26.186Z,5.00
2022-08-31T15:39:54.188Z,7.03
2022-08-31T15:42:24.160Z,5.00
2022-08-31T15:44:56.702Z,9.60
2022-08-31T15:47:43.213Z,5.13
2022-08-31T15:50:11.195Z,6.15
2022-08-31T15:52:42.074Z,5.75
2022-08-31T15:55:11.780Z,5.35
2022-08-31T15:57:41.055Z,4.88
2022-08-31T16:00:13.578Z,5.85
2022-08-31T16:02:41.278Z,8.38
2022-08-31T16:05:10.175Z,8.10
2022-08-31T16:07:39.076Z,7.15
2022-08-31T16:10:19.351Z,6.25
2022-08-31T16:12:51.558Z,4.20
2022-08-31T16:15:23.306Z,6.22
2022-08-31T16:17:57.559Z,5.65
2022-08-31T16:20:27.173Z,6.47
2022-08-31T16:22:54.821Z,4.70
2022-08-31T16:25:25.197Z,5.10
2022-08-31T16:27:59.640Z,7.72
2022-08-31T16:30:27.846Z,6.03
2022-08-31T16:32:55.493Z,5.50
2022-08-31T16:35:23.177Z,4.45
2022-08-31T16:37:51.376Z,4.40
2022-08-31T16:40:19.720Z,4.53
2022-08-31T16:42:47.450Z,4.45
2022-08-31T16:45:16.441Z,5.13
2022-08-31T16:47:44.049Z,5.40
2022-08-31T16:50:11.321Z,5.50
2022-08-31T16:52:38.908Z,5.43
2022-08-31T16:55:07.800Z,5.72
2022-08-31T16:57:35.501Z,4.13
2022-08-31T17:00:04.831Z,6.18
2022-08-31T17:02:33.970Z,7.93
2022-08-31T17:05:04.516Z,6.03
2022-08-31T17:07:32.201Z,6.45
2022-08-31T17:10:03.829Z,5.20
2022-08-31T17:12:31.849Z,6.50
2022-08-31T17:15:00.294Z,6.15
2022-08-31T17:17:28.030Z,5.35
2022-08-31T17:19:58.851Z,5.88
2022-08-31T17:22:32.625Z,7.07
2022-08-31T17:25:02.721Z,7.22
2022-08-31T17:27:32.152Z,8.68
2022-08-31T17:30:00.852Z,6.75
2022-08-31T17:32:29.225Z,8.52
2022-08-31T17:34:58.202Z,6.18
2022-08-31T17:37:32.507Z,7.43
2022-08-31T17:40:00.898Z,7.35
2022-08-31T17:42:28.853Z,5.70
2022-08-31T17:44:57.962Z,6.90
2022-08-31T17:47:26.878Z,7.93
2022-08-31T17:49:55.063Z,9.75
2022-08-31T17:52:24.083Z,7.13
2022-08-31T17:54:52.240Z,9.85
2022-08-31T17:57:24.838Z,10.00
2022-08-31T17:59:54.626Z,7.82
2022-08-31T18:02:26.413Z,6.82
2022-08-31T18:04:54.318Z,6.72
2022-08-31T18:07:23.848Z,7.22
2022-08-31T18:09:51.564Z,10.20
2022-08-31T18:12:21.822Z,8.80
2022-08-31T18:14:49.624Z,7.38
2022-08-31T18:17:17.689Z,8.05
2022-08-31T18:19:46.200Z,7.00
2022-08-31T18:22:14.837Z,7.97
2022-08-31T18:24:44.332Z,7.60
2022-08-31T18:27:15.585Z,9.40
2022-08-31T18:29:44.497Z,7.68
2022-08-31T18:32:13.333Z,7.30
2022-08-31T18:34:44.575Z,7.90
2022-08-31T18:37:13.297Z,9.45
2022-08-31T18:39:55.218Z,8.13
2022-08-31T18:42:43.105Z,8.80
2022-08-31T18:45:18.990Z,8.88
2022-08-31T18:48:13.717Z,13.57
2022-08-31T18:50:37.501Z,8.02
2022-08-31T18:53:10.851Z,9.27
2022-08-31T18:55:43.140Z,10.07
2022-08-31T18:58:13.124Z,7.75
2022-08-31T19:00:41.404Z,9.85
2022-08-31T19:03:09.121Z,8.15
2022-08-31T19:05:39.685Z,10.00
2022-08-31T19:08:07.565Z,10.43
2022-08-31T19:10:35.709Z,10.52
2022-08-31T19:13:05.401Z,7.88
2022-08-31T19:15:39.302Z,8.77
2022-08-31T19:18:07.590Z,10.10
2022-08-31T19:20:36.113Z,9.35
2022-08-31T19:23:04.082Z,8.25
2022-08-31T19:25:32.471Z,8.00
2022-08-31T19:28:01.490Z,10.63
2022-08-31T19:30:30.146Z,10.35
2022-08-31T19:32:59.137Z,10.15
2022-08-31T19:35:27.418Z,13.32
2022-08-31T19:37:56.061Z,11.00
2022-08-31T19:40:35.580Z,8.80
2022-08-31T19:45:54.261Z,10.75
2022-08-31T19:48:24.146Z,13.35
2022-08-31T19:50:53.387Z,12.15
2022-08-31T19:53:22.829Z,12.38
2022-08-31T19:55:53.384Z,11.05
2022-08-31T19:58:26.117Z,14.43
2022-08-31T20:01:00.564Z,12.33
2022-08-31T20:03:31.041Z,10.85
2022-08-31T20:05:59.767Z,13.13
2022-08-31T20:08:27.686Z,11.88
2022-08-31T20:10:55.400Z,11.98
2022-08-31T20:13:24.458Z,10.32
2022-08-31T20:15:52.685Z,12.45
2022-08-31T20:18:20.722Z,11.30
2022-08-31T20:20:50.747Z,12.05
2022-08-31T20:23:21.204Z,12.20
2022-08-31T20:25:51.559Z,10.57
2022-08-31T20:28:21.624Z,13.52
2022-08-31T20:30:49.496Z,10.52
2022-08-31T20:33:17.152Z,12.70
2022-08-31T20:35:47.233Z,10.60
2022-08-31T20:38:17.093Z,11.05
2022-08-31T20:40:47.169Z,15.00
2022-08-31T20:43:15.615Z,16.13
2022-08-31T20:45:43.441Z,13.32
2022-08-31T20:48:29.621Z,11.68
2022-08-31T20:50:58.115Z,16.23
2022-08-31T20:53:43.419Z,15.60
2022-08-31T20:56:17.011Z,12.23
2022-08-31T20:58:46.297Z,11.88
2022-08-31T21:01:16.045Z,11.80
2022-08-31T21:03:43.860Z,14.52
2022-08-31T21:06:12.921Z,14.80
2022-08-31T21:08:42.149Z,13.02
2022-08-31T21:11:13.911Z,10.73
2022-08-31T21:13:42.721Z,16.13
2022-08-31T21:16:10.559Z,13.02
2022-08-31T21:18:39.569Z,14.77
2022-08-31T21:21:09.015Z,13.63
2022-08-31T21:23:38.410Z,14.40
2022-08-31T21:26:08.524Z,13.13
2022-08-31T21:28:38.467Z,11.95
2022-08-31T21:31:15.861Z,12.52
2022-08-31T21:33:57.400Z,14.68
2022-08-31T21:36:26.591Z,11.73
2022-08-31T21:38:56.057Z,10.40
2022-08-31T21:41:27.805Z,11.40
2022-08-31T21:43:57.477Z,14.13
2022-08-31T21:46:27.616Z,10.40
2022-08-31T21:48:57.698Z,10.63
2022-08-31T21:51:28.100Z,11.07
2022-08-31T21:53:58.887Z,11.52
2022-08-31T21:56:31.317Z,10.25
2022-08-31T21:58:59.729Z,10.40
2022-08-31T22:01:29.891Z,11.30
2022-08-31T22:03:59.022Z,9.68
2022-08-31T22:06:30.940Z,9.18
2022-08-31T22:09:01.410Z,9.98
2022-08-31T22:11:32.883Z,8.73
2022-08-31T22:14:01.577Z,8.35
2022-08-31T22:16:29.340Z,9.63
2022-08-31T22:19:01.141Z,10.60
2022-08-31T22:21:34.045Z,13.40
2022-08-31T22:24:04.832Z,10.88
2022-08-31T22:26:37.746Z,12.32
2022-08-31T22:29:06.381Z,8.85
2022-08-31T22:31:37.039Z,11.50
2022-08-31T22:34:05.780Z,9.20
2022-08-31T22:36:34.422Z,12.63
2022-08-31T22:39:05.565Z,9.93
2022-08-31T22:41:37.258Z,9.57
2022-08-31T22:44:06.320Z,8.18
2022-08-31T22:46:35.048Z,14.70
2022-08-31T22:49:02.790Z,14.85
2022-08-31T22:51:30.529Z,9.73
2022-08-31T22:53:58.236Z,8.23
2022-08-31T22:56:28.457Z,10.10
2022-08-31T22:58:59.329Z,9.93
2022-08-31T23:01:29.419Z,8.63
2022-08-31T23:04:00.622Z,9.45
2022-08-31T23:06:29.913Z,10.38
2022-08-31T23:08:59.400Z,9.40
2022-08-31T23:11:28.074Z,9.00
2022-08-31T23:14:01.885Z,10.98
2022-08-31T23:16:36.671Z,9.20
2022-08-31T23:19:11.952Z,8.00
2022-08-31T23:21:44.902Z,10.05
2022-08-31T23:24:16.623Z,10.10
2022-08-31T23:26:45.385Z,9.10
2022-08-31T23:29:17.962Z,8.00
2022-08-31T23:31:48.559Z,10.47
2022-08-31T23:34:17.503Z,9.88
2022-08-31T23:36:48.760Z,8.43
2022-08-31T23:39:17.735Z,8.40
2022-08-31T23:41:46.396Z,9.38
2022-08-31T23:44:16.263Z,10.45
2022-08-31T23:46:44.174Z,8.48
2022-08-31T23:49:15.554Z,8.55
2022-08-31T23:51:43.298Z,8.63
2022-08-31T23:54:12.573Z,9.07
2022-08-31T23:56:44.598Z,9.95
2022-08-31T23:59:18.746Z,8.82
